createdAt,value
2023-03-23T00:00:06.486Z,7.7
2023-03-23T00:02:03.199Z,7.8
2023-03-23T00:04:02.131Z,8.3
2023-03-23T00:06:06.646Z,8.1
2023-03-23T00:08:02.663Z,9.7
2023-03-23T00:10:03.530Z,9.6
2023-03-23T00:12:05.961Z,9.4
2023-03-23T00:14:03.011Z,10.0
2023-03-23T00:16:04.249Z,9.4
2023-03-23T00:18:03.055Z,8.2
2023-03-23T00:20:05.528Z,9.0
2023-03-23T00:22:02.349Z,8.7
2023-03-23T00:24:07.969Z,7.6
2023-03-23T00:26:02.448Z,7.7
2023-03-23T00:28:03.271Z,9.9
2023-03-23T00:30:03.056Z,9.4
2023-03-23T00:32:03.034Z,8.9
2023-03-23T00:34:04.806Z,7.1
2023-03-23T00:36:03.574Z,9.1
2023-03-23T00:38:02.878Z,7.8
2023-03-23T00:40:07.994Z,8.4
2023-03-23T00:42:02.139Z,8.8
2023-03-23T00:44:02.735Z,9.0
2023-03-23T00:46:02.543Z,9.6
2023-03-23T00:48:03.099Z,7.4
2023-03-23T00:50:02.265Z,7.9
2023-03-23T00:52:04.214Z,8.0
2023-03-23T00:54:02.141Z,8.5
2023-03-23T00:56:02.355Z,9.0
2023-03-23T00:58:02.190Z,8.3
2023-03-23T01:00:06.188Z,10.2
2023-03-23T01:02:02.472Z,10.2
2023-03-23T01:04:04.499Z,9.4
2023-03-23T01:06:06.387Z,10.1
2023-03-23T01:08:02.430Z,7.1
2023-03-23T01:10:02.931Z,7.5
2023-03-23T01:12:02.579Z,7.2
2023-03-23T01:14:02.376Z,7.6
2023-03-23T01:16:03.080Z,7.2
2023-03-23T01:18:02.658Z,8.9
2023-03-23T01:20:04.702Z,8.9
2023-03-23T01:22:02.122Z,10.1
2023-03-23T01:24:03.263Z,9.9
2023-03-23T01:26:05.620Z,8.9
2023-03-23T01:28:03.486Z,9.5
2023-03-23T01:30:02.781Z,8.7
2023-03-23T01:32:02.382Z,8.8
2023-03-23T01:34:02.684Z,7.1
2023-03-23T01:36:06.339Z,7.5
2023-03-23T01:38:02.352Z,9.3
2023-03-23T01:40:02.380Z,8.2
2023-03-23T01:42:02.112Z,8.1
2023-03-23T01:44:04.912Z,8.3
2023-03-23T01:46:02.131Z,7.7
2023-03-23T01:48:11.303Z,11.0
2023-03-23T01:50:03.273Z,7.6
2023-03-23T01:52:06.812Z,6.2
2023-03-23T01:54:06.104Z,11.0
2023-03-23T01:56:03.320Z,10.3
2023-03-23T01:58:02.200Z,7.6
2023-03-23T02:00:10.926Z,8.0
2023-03-23T02:02:03.019Z,6.2
2023-03-23T02:04:02.555Z,8.1
2023-03-23T02:06:03.006Z,9.6
2023-03-23T02:08:05.885Z,7.8
2023-03-23T02:10:02.107Z,9.0
2023-03-23T02:12:03.084Z,7.0
2023-03-23T02:14:03.699Z,7.8
2023-03-23T02:16:09.224Z,6.8
2023-03-23T02:18:10.061Z,9.7
2023-03-23T02:20:18.361Z,7.7
2023-03-23T02:22:21.326Z,8.6
2023-03-23T02:24:20.584Z,6.6
2023-03-23T02:26:21.125Z,7.4
2023-03-23T02:28:21.169Z,8.1
2023-03-23T02:30:12.197Z,9.1
2023-03-23T02:32:16.264Z,13.6
2023-03-23T02:34:06.479Z,13.6
2023-03-23T02:36:11.588Z,8.5
2023-03-23T02:38:08.450Z,8.5
2023-03-23T02:40:09.261Z,7.7
2023-03-23T02:42:15.516Z,9.0
2023-03-23T02:44:04.257Z,9.0
2023-03-23T02:46:06.786Z,9.3
2023-03-23T02:48:04.251Z,8.3
2023-03-23T02:50:04.093Z,10.6
2023-03-23T02:52:06.187Z,11.6
2023-03-23T02:54:05.468Z,13.1
2023-03-23T02:56:05.475Z,13.3
2023-03-23T02:58:02.552Z,12.8
2023-03-23T03:00:02.520Z,11.7
2023-03-23T03:02:06.321Z,12.0
2023-03-23T03:04:05.645Z,10.7
2023-03-23T03:06:14.468Z,9.1
2023-03-23T03:08:11.230Z,12.3
2023-03-23T03:10:07.701Z,10.4
2023-03-23T03:12:09.268Z,9.4
2023-03-23T03:14:09.889Z,10.9
2023-03-23T03:16:10.305Z,10.8
2023-03-23T03:18:11.835Z,9.6
2023-03-23T03:20:08.385Z,10.3
2023-03-23T03:22:05.097Z,10.3
2023-03-23T03:24:05.436Z,9.8
2023-03-23T03:26:05.372Z,8.4
2023-03-23T03:28:04.237Z,10.8
2023-03-23T03:30:08.259Z,11.2
2023-03-23T03:32:06.656Z,10.4
2023-03-23T03:34:02.121Z,8.3
2023-03-23T03:36:09.172Z,11.4
2023-03-23T03:38:07.738Z,13.1
2023-03-23T03:40:03.255Z,10.2
2023-03-23T03:42:02.536Z,9.7
2023-03-23T03:44:02.774Z,9.2
2023-03-23T03:46:02.165Z,12.9
2023-03-23T03:48:03.218Z,10.1
2023-03-23T03:50:02.399Z,10.6
2023-03-23T03:52:02.258Z,9.1
2023-03-23T03:54:03.175Z,9.5
2023-03-23T03:56:02.150Z,10.2
2023-03-23T03:58:03.114Z,9.1
2023-03-23T04:00:11.964Z,9.9
2023-03-23T04:02:02.898Z,10.8
2023-03-23T04:04:03.315Z,9.9
2023-03-23T04:06:03.012Z,13.1
2023-03-23T04:08:09.388Z,10.0
2023-03-23T04:10:02.110Z,14.1
2023-03-23T04:12:02.358Z,12.5
2023-03-23T04:14:02.950Z,8.2
2023-03-23T04:16:10.094Z,10.6
2023-03-23T04:18:02.691Z,10.5
2023-03-23T04:20:06.723Z,9.7
2023-03-23T04:22:02.092Z,8.7
2023-03-23T04:24:03.651Z,8.8
2023-03-23T04:26:03.711Z,9.6
2023-03-23T04:28:02.088Z,9.7
2023-03-23T04:30:03.359Z,8.7
2023-03-23T04:32:02.493Z,10.6
2023-03-23T04:34:02.177Z,7.5
2023-03-23T04:36:03.101Z,10.4
2023-03-23T04:38:02.799Z,8.5
2023-03-23T04:40:07.275Z,8.7
2023-03-23T04:42:02.215Z,10.1
2023-03-23T04:44:04.789Z,9.1
2023-03-23T04:46:02.838Z,9.9
2023-03-23T04:48:05.533Z,9.6
2023-03-23T04:50:02.547Z,8.6
2023-03-23T04:52:02.671Z,9.0
2023-03-23T04:54:02.708Z,9.6
2023-03-23T04:56:02.224Z,8.0
2023-03-23T04:58:03.173Z,9.6
2023-03-23T05:00:09.186Z,7.9
2023-03-23T05:02:14.324Z,7.9
2023-03-23T05:04:02.669Z,9.8
2023-03-23T05:06:03.986Z,8.2
2023-03-23T05:08:02.316Z,9.2
2023-03-23T05:10:02.701Z,9.4
2023-03-23T05:12:06.023Z,11.1
2023-03-23T05:14:04.571Z,9.0
2023-03-23T05:16:06.075Z,10.5
2023-03-23T05:18:02.197Z,7.9
2023-03-23T05:20:06.034Z,9.0
2023-03-23T05:22:03.453Z,9.5
2023-03-23T05:24:02.617Z,9.6
2023-03-23T05:26:02.785Z,9.0
2023-03-23T05:28:02.107Z,7.7
2023-03-23T05:30:02.255Z,6.9
2023-03-23T05:32:02.774Z,11.0
2023-03-23T05:36:04.822Z,9.4
2023-03-23T05:38:03.909Z,8.1
2023-03-23T05:40:06.645Z,10.5
2023-03-23T05:42:03.378Z,11.2
2023-03-23T05:44:03.002Z,12.1
2023-03-23T05:46:03.480Z,7.9
2023-03-23T05:48:03.428Z,10.9
2023-03-23T05:50:02.922Z,11.9
2023-03-23T05:52:02.474Z,7.8
2023-03-23T05:54:03.737Z,8.5
2023-03-23T05:56:03.904Z,10.2
2023-03-23T05:58:03.065Z,9.4
2023-03-23T06:00:12.508Z,10.3
2023-03-23T06:02:03.574Z,8.8
2023-03-23T06:04:03.440Z,9.5
2023-03-23T06:06:02.533Z,8.4
2023-03-23T06:08:02.784Z,7.4
2023-03-23T06:10:02.446Z,7.9
2023-03-23T06:12:02.765Z,8.2
2023-03-23T06:14:03.326Z,10.5
2023-03-23T06:16:02.563Z,10.0
2023-03-23T06:18:04.289Z,8.4
2023-03-23T06:20:04.806Z,7.8
2023-03-23T06:22:02.798Z,8.6
2023-03-23T06:24:03.993Z,10.1
2023-03-23T06:26:05.894Z,12.5
2023-03-23T06:28:03.526Z,8.4
2023-03-23T06:30:03.493Z,12.5
2023-03-23T06:32:04.493Z,11.6
2023-03-23T06:34:03.258Z,8.2
2023-03-23T06:36:03.790Z,9.5
2023-03-23T06:38:03.160Z,11.0
2023-03-23T06:40:04.543Z,7.3
2023-03-23T06:42:03.100Z,9.3
2023-03-23T06:44:03.539Z,6.8
2023-03-23T06:46:03.171Z,10.4
2023-03-23T06:48:02.860Z,7.8
2023-03-23T06:50:02.475Z,10.0
2023-03-23T06:52:03.783Z,7.2
2023-03-23T06:54:02.461Z,7.2
2023-03-23T06:56:03.152Z,10.7
2023-03-23T06:58:02.532Z,8.7
2023-03-23T07:00:05.740Z,9.1
2023-03-23T07:02:02.859Z,8.2
2023-03-23T07:04:02.504Z,8.9
2023-03-23T07:06:02.502Z,9.8
2023-03-23T07:08:03.602Z,9.5
2023-03-23T07:10:03.767Z,9.8
2023-03-23T07:12:03.138Z,9.6
2023-03-23T07:14:03.113Z,9.5
2023-03-23T07:16:05.405Z,8.3
2023-03-23T07:18:02.565Z,8.3
2023-03-23T07:20:03.561Z,11.0
2023-03-23T07:22:02.600Z,8.6
2023-03-23T07:24:02.704Z,9.3
2023-03-23T07:26:03.581Z,8.5
2023-03-23T07:28:03.134Z,8.1
2023-03-23T07:30:03.200Z,9.8
2023-03-23T07:32:03.103Z,8.6
2023-03-23T07:34:03.501Z,9.6
2023-03-23T07:36:03.528Z,8.3
2023-03-23T07:38:02.948Z,8.2
2023-03-23T07:40:12.728Z,9.2
2023-03-23T07:42:02.516Z,11.3
2023-03-23T07:44:03.183Z,10.5
2023-03-23T07:46:02.783Z,9.1
2023-03-23T07:48:05.286Z,8.8
2023-03-23T07:50:02.594Z,9.5
2023-03-23T07:52:03.310Z,9.6
2023-03-23T07:54:05.169Z,9.1
2023-03-23T07:56:03.770Z,9.1
2023-03-23T07:58:02.624Z,9.5
2023-03-23T08:00:13.213Z,8.9
2023-03-23T08:02:02.870Z,10.8
2023-03-23T08:04:03.064Z,9.3
2023-03-23T08:06:02.581Z,10.4
2023-03-23T08:08:02.532Z,8.5
2023-03-23T08:10:03.954Z,10.7
2023-03-23T08:12:03.021Z,10.9
2023-03-23T08:16:04.141Z,9.6
2023-03-23T08:18:03.002Z,11.3
2023-03-23T08:20:11.106Z,8.5
2023-03-23T08:22:02.469Z,9.0
2023-03-23T08:24:02.669Z,9.5
2023-03-23T08:26:02.556Z,8.8
2023-03-23T08:28:02.536Z,8.8
2023-03-23T08:30:05.395Z,8.6
2023-03-23T08:32:03.586Z,11.5
2023-03-23T08:34:05.110Z,11.3
2023-03-23T08:36:03.515Z,9.8
2023-03-23T08:38:02.525Z,9.0
2023-03-23T08:40:08.793Z,9.4
2023-03-23T08:42:02.812Z,10.2
2023-03-23T08:44:03.619Z,8.2
2023-03-23T08:46:07.136Z,8.7
2023-03-23T08:48:02.652Z,7.9
2023-03-23T08:50:03.662Z,8.0
2023-03-23T08:52:04.026Z,6.3
2023-03-23T08:54:03.123Z,8.4
2023-03-23T08:56:08.524Z,6.9
2023-03-23T08:58:04.081Z,8.5
2023-03-23T09:00:13.215Z,7.9
2023-03-23T09:02:02.435Z,8.7
2023-03-23T09:04:02.688Z,9.8
2023-03-23T09:06:05.948Z,8.7
2023-03-23T09:08:04.280Z,8.2
2023-03-23T09:10:03.311Z,8.5
2023-03-23T09:12:02.809Z,9.2
2023-03-23T09:14:04.373Z,6.7
2023-03-23T09:16:04.432Z,8.5
2023-03-23T09:18:02.528Z,7.9
2023-03-23T09:20:07.094Z,8.2
2023-03-23T09:22:04.215Z,7.6
2023-03-23T09:24:04.977Z,7.0
2023-03-23T09:26:04.186Z,8.9
2023-03-23T09:28:02.643Z,8.6
2023-03-23T09:30:02.967Z,8.6
2023-03-23T09:32:03.197Z,6.9
2023-03-23T09:34:04.637Z,6.8
2023-03-23T09:36:05.390Z,7.5
2023-03-23T09:38:04.542Z,6.9
2023-03-23T09:40:06.750Z,7.9
2023-03-23T09:42:13.741Z,6.8
2023-03-23T09:44:08.174Z,6.3
2023-03-23T09:46:17.076Z,6.5
2023-03-23T09:48:22.147Z,7.1
2023-03-23T09:50:10.241Z,8.7
2023-03-23T09:52:06.549Z,5.6
2023-03-23T09:54:07.754Z,7.6
2023-03-23T09:56:07.044Z,7.6
2023-03-23T09:58:13.706Z,7.0
2023-03-23T10:00:10.693Z,8.0
2023-03-23T10:02:14.942Z,7.3
2023-03-23T10:04:10.029Z,6.4
2023-03-23T10:06:03.558Z,5.8
2023-03-23T10:08:12.851Z,5.8
2023-03-23T10:10:03.519Z,6.9
2023-03-23T10:12:10.842Z,7.0
2023-03-23T10:14:11.625Z,5.5
2023-03-23T10:16:05.806Z,7.3
2023-03-23T10:18:09.522Z,7.3
2023-03-23T10:20:19.739Z,6.5
2023-03-23T10:22:07.588Z,7.7
2023-03-23T10:24:05.159Z,8.9
2023-03-23T10:26:09.640Z,6.6
2023-03-23T10:28:10.852Z,6.8
2023-03-23T10:30:12.369Z,6.6
2023-03-23T10:32:10.627Z,6.6
2023-03-23T10:34:10.236Z,6.5
2023-03-23T10:36:09.763Z,8.7
2023-03-23T10:38:06.853Z,6.7
2023-03-23T10:40:10.279Z,8.1
2023-03-23T10:42:07.458Z,6.3
2023-03-23T10:44:09.608Z,7.9
2023-03-23T10:46:12.473Z,6.2
2023-03-23T10:48:11.937Z,5.3
2023-03-23T10:50:12.764Z,7.0
2023-03-23T10:52:11.790Z,6.2
2023-03-23T10:54:05.360Z,8.4
2023-03-23T10:56:04.080Z,5.6
2023-03-23T10:58:04.890Z,7.3
2023-03-23T11:00:07.608Z,7.7
2023-03-23T11:02:24.105Z,7.1
2023-03-23T11:04:02.728Z,7.9
2023-03-23T11:06:05.875Z,6.3
2023-03-23T11:08:03.339Z,5.3
2023-03-23T11:10:17.766Z,7.6
2023-03-23T11:12:03.614Z,6.5
2023-03-23T11:14:13.930Z,8.3
2023-03-23T11:16:03.051Z,7.2
2023-03-23T11:18:04.725Z,7.6
2023-03-23T11:20:10.978Z,6.3
2023-03-23T11:22:09.900Z,6.2
2023-03-23T11:24:09.587Z,6.2
2023-03-23T11:26:16.136Z,5.5
2023-03-23T11:28:02.892Z,5.5
2023-03-23T11:30:10.745Z,8.2
2023-03-23T11:32:06.980Z,8.2
2023-03-23T11:34:06.271Z,6.4
2023-03-23T11:36:03.712Z,8.2
2023-03-23T11:38:04.790Z,8.8
2023-03-23T11:40:13.481Z,6.8
2023-03-23T11:42:13.438Z,6.8
2023-03-23T11:44:11.620Z,5.7
2023-03-23T11:46:10.115Z,8.1
2023-03-23T11:48:13.769Z,8.2
2023-03-23T11:50:09.811Z,6.4
2023-03-23T11:52:12.485Z,7.6
2023-03-23T11:54:09.338Z,7.9
2023-03-23T11:56:10.687Z,7.2
2023-03-23T11:58:12.735Z,6.6
2023-03-23T12:00:12.347Z,7.3
2023-03-23T12:02:19.148Z,7.9
2023-03-23T12:04:22.033Z,8.9
2023-03-23T12:06:06.779Z,6.5
2023-03-23T12:08:12.258Z,6.6
2023-03-23T12:10:25.525Z,8.6
2023-03-23T12:12:11.154Z,8.2
2023-03-23T12:14:13.321Z,4.9
2023-03-23T12:16:09.499Z,8.9
2023-03-23T12:18:10.901Z,7.6
2023-03-23T12:20:18.052Z,8.3
2023-03-23T12:22:13.828Z,4.5
2023-03-23T12:24:15.945Z,7.6
2023-03-23T12:26:15.461Z,6.6
2023-03-23T12:28:11.864Z,8.6
2023-03-23T12:30:21.649Z,5.3
2023-03-23T12:32:19.801Z,7.4
2023-03-23T12:34:11.054Z,5.6
2023-03-23T12:36:15.560Z,4.5
2023-03-23T12:38:18.573Z,8.2
2023-03-23T12:40:18.214Z,6.3
2023-03-23T12:42:09.032Z,8.1
2023-03-23T12:44:10.360Z,7.8
2023-03-23T12:46:19.159Z,6.5
2023-03-23T12:48:09.646Z,7.2
2023-03-23T12:50:10.448Z,6.7
2023-03-23T12:52:12.462Z,4.9
2023-03-23T12:54:12.558Z,5.9
2023-03-23T12:56:13.830Z,7.8
2023-03-23T12:58:08.352Z,6.9
2023-03-23T13:00:13.363Z,10.8
2023-03-23T13:02:13.524Z,6.8
2023-03-23T13:04:09.635Z,5.8
2023-03-23T13:06:09.278Z,8.2
2023-03-23T13:08:09.054Z,8.6
2023-03-23T13:10:07.095Z,8.7
2023-03-23T13:12:04.857Z,7.9
2023-03-23T13:14:16.573Z,7.8
2023-03-23T13:16:09.671Z,9.4
2023-03-23T13:18:11.915Z,9.1
2023-03-23T13:20:20.087Z,8.4
2023-03-23T13:22:08.112Z,10.0
2023-03-23T13:24:06.521Z,9.0
2023-03-23T13:26:05.073Z,9.2
2023-03-23T13:28:04.205Z,6.8
2023-03-23T13:30:04.615Z,6.8
2023-03-23T13:32:12.126Z,7.5
2023-03-23T13:34:06.115Z,8.2
2023-03-23T13:36:16.636Z,8.5
2023-03-23T13:38:02.574Z,8.5
2023-03-23T13:40:17.884Z,6.7
2023-03-23T13:42:14.994Z,9.3
2023-03-23T13:44:18.840Z,8.7
2023-03-23T13:46:12.762Z,8.9
2023-03-23T13:48:06.505Z,9.7
2023-03-23T13:50:10.807Z,7.2
2023-03-23T13:52:17.609Z,7.8
2023-03-23T13:54:20.870Z,9.4
2023-03-23T13:56:17.534Z,7.7
2023-03-23T13:58:13.011Z,8.3
2023-03-23T14:00:21.185Z,6.9
2023-03-23T14:02:21.502Z,7.0
2023-03-23T14:04:06.931Z,7.2
2023-03-23T14:06:07.380Z,8.4
2023-03-23T14:08:11.667Z,7.8
2023-03-23T14:10:06.856Z,6.4
2023-03-23T14:12:09.232Z,7.6
2023-03-23T14:14:05.815Z,10.3
2023-03-23T14:16:06.332Z,9.8
2023-03-23T14:18:05.304Z,7.5
2023-03-23T14:20:04.068Z,5.7
2023-03-23T14:22:03.237Z,5.9
2023-03-23T14:24:06.922Z,4.6
2023-03-23T14:26:14.678Z,5.2
2023-03-23T14:28:02.430Z,8.5
2023-03-23T14:30:06.636Z,6.9
2023-03-23T14:32:06.284Z,8.5
2023-03-23T14:34:07.299Z,7.3
2023-03-23T14:36:02.697Z,5.4
2023-03-23T14:38:04.451Z,6.8
2023-03-23T14:40:06.315Z,7.5
2023-03-23T14:42:07.232Z,6.0
2023-03-23T14:44:06.385Z,5.7
2023-03-23T14:46:07.524Z,7.4
2023-03-23T14:48:04.528Z,7.7
2023-03-23T14:50:05.664Z,6.2
2023-03-23T14:52:10.350Z,8.3
2023-03-23T14:54:02.594Z,5.3
2023-03-23T14:56:05.390Z,6.2
2023-03-23T14:58:14.523Z,5.2
2023-03-23T15:00:03.857Z,4.8
2023-03-23T15:02:02.881Z,6.2
2023-03-23T15:04:06.351Z,6.6
2023-03-23T15:06:11.383Z,6.2
2023-03-23T15:08:05.457Z,7.0
2023-03-23T15:10:06.270Z,6.1
2023-03-23T15:12:05.301Z,5.4
2023-03-23T15:14:14.190Z,4.0
2023-03-23T15:16:06.806Z,4.1
2023-03-23T15:18:04.426Z,4.8
2023-03-23T15:20:10.364Z,4.7
2023-03-23T15:22:16.229Z,5.0
2023-03-23T15:24:13.737Z,5.0
2023-03-23T15:26:07.112Z,5.5
2023-03-23T15:28:17.206Z,5.8
2023-03-23T15:30:15.095Z,7.1
2023-03-23T15:32:04.114Z,5.4
2023-03-23T15:34:07.438Z,6.4
2023-03-23T15:36:09.827Z,6.1
2023-03-23T15:38:05.595Z,6.8
2023-03-23T15:40:03.551Z,6.3
2023-03-23T15:42:06.498Z,5.2
2023-03-23T15:44:12.946Z,8.7
2023-03-23T15:46:06.987Z,5.8
2023-03-23T15:48:13.307Z,4.2
2023-03-23T15:50:09.056Z,6.2
2023-03-23T15:52:02.958Z,6.2
2023-03-23T15:54:09.102Z,7.0
2023-03-23T15:56:05.548Z,5.2
2023-03-23T15:58:10.635Z,5.2
2023-03-23T16:00:02.936Z,5.2
2023-03-23T16:02:02.537Z,5.8
2023-03-23T16:04:06.894Z,6.1
2023-03-23T16:06:03.181Z,6.3
2023-03-23T16:08:02.541Z,6.2
2023-03-23T16:10:03.102Z,5.6
2023-03-23T16:12:03.515Z,6.8
2023-03-23T16:14:03.059Z,9.6
2023-03-23T16:16:04.368Z,4.6
2023-03-23T16:18:02.582Z,5.8
2023-03-23T16:20:03.689Z,4.8
2023-03-23T16:22:02.612Z,5.8
2023-03-23T16:24:03.455Z,5.4
2023-03-23T16:26:03.201Z,6.3
2023-03-23T16:28:02.425Z,7.7
2023-03-23T16:30:10.174Z,5.2
2023-03-23T16:32:03.118Z,5.9
2023-03-23T16:34:02.509Z,6.5
2023-03-23T16:36:04.780Z,5.4
2023-03-23T16:38:07.740Z,6.3
2023-03-23T16:40:04.180Z,6.5
2023-03-23T16:42:02.570Z,5.9
2023-03-23T16:44:02.990Z,5.5
2023-03-23T16:46:03.081Z,6.6
2023-03-23T16:48:04.748Z,4.8
2023-03-23T16:50:03.618Z,5.8
2023-03-23T16:52:02.433Z,3.4
2023-03-23T16:54:02.477Z,5.1
2023-03-23T16:56:03.684Z,4.1
2023-03-23T16:58:15.550Z,4.0
2023-03-23T17:00:06.017Z,5.0
2023-03-23T17:02:04.039Z,4.3
2023-03-23T17:04:02.442Z,3.6
2023-03-23T17:06:03.990Z,4.9
2023-03-23T17:08:03.690Z,4.1
2023-03-23T17:10:03.644Z,3.7
2023-03-23T17:12:02.979Z,5.0
2023-03-23T17:14:02.523Z,5.6
2023-03-23T17:16:02.507Z,5.6
2023-03-23T17:18:03.292Z,5.2
2023-03-23T17:20:03.332Z,4.3
2023-03-23T17:22:03.447Z,6.4
2023-03-23T17:24:03.292Z,5.4
2023-03-23T17:26:03.631Z,4.6
2023-03-23T17:28:05.465Z,4.9
2023-03-23T17:30:03.851Z,3.8
2023-03-23T17:32:02.436Z,4.8
2023-03-23T17:34:02.940Z,6.0
2023-03-23T17:36:02.707Z,4.1
2023-03-23T17:38:02.471Z,5.9
2023-03-23T17:40:03.317Z,3.4
2023-03-23T17:42:03.834Z,5.4
2023-03-23T17:44:03.397Z,4.4
2023-03-23T17:46:02.618Z,4.8
2023-03-23T17:48:07.023Z,3.7
2023-03-23T17:50:11.246Z,4.7
2023-03-23T17:52:02.524Z,4.7
2023-03-23T17:54:02.713Z,4.3
2023-03-23T17:56:04.429Z,3.2
2023-03-23T17:58:02.920Z,3.9
2023-03-23T18:00:02.911Z,6.5
2023-03-23T18:02:03.488Z,4.6
2023-03-23T18:04:03.984Z,5.0
2023-03-23T18:06:07.683Z,5.1
2023-03-23T18:08:03.039Z,5.2
2023-03-23T18:10:10.993Z,5.6
2023-03-23T18:12:03.510Z,6.1
2023-03-23T18:14:02.631Z,5.4
2023-03-23T18:16:03.601Z,3.9
2023-03-23T18:18:03.772Z,3.5
2023-03-23T18:20:02.937Z,3.8
2023-03-23T18:22:02.722Z,4.1
2023-03-23T18:24:03.329Z,3.5
2023-03-23T18:26:03.961Z,4.3
2023-03-23T18:28:05.956Z,3.6
2023-03-23T18:30:03.412Z,5.3
2023-03-23T18:32:02.483Z,4.1
2023-03-23T18:34:02.464Z,3.5
2023-03-23T18:36:04.140Z,4.3
2023-03-23T18:38:03.030Z,3.9
2023-03-23T18:40:04.846Z,3.0
2023-03-23T18:42:02.622Z,2.9
2023-03-23T18:44:02.706Z,3.9
2023-03-23T18:46:04.643Z,3.7
2023-03-23T18:48:03.289Z,2.7
2023-03-23T18:50:03.544Z,3.9
2023-03-23T18:52:03.084Z,4.5
2023-03-23T18:54:02.458Z,2.8
2023-03-23T18:56:06.368Z,3.3
2023-03-23T18:58:03.769Z,3.5
2023-03-23T19:00:04.407Z,5.5
2023-03-23T19:02:03.521Z,2.7
2023-03-23T19:04:06.294Z,2.7
2023-03-23T19:06:04.060Z,3.9
2023-03-23T19:08:03.165Z,5.7
2023-03-23T19:10:02.989Z,3.2
2023-03-23T19:12:03.108Z,4.2
2023-03-23T19:14:03.781Z,7.6
2023-03-23T19:16:02.900Z,2.6
2023-03-23T19:18:02.529Z,2.6
2023-03-23T19:20:02.981Z,2.9
2023-03-23T19:22:05.020Z,2.9
2023-03-23T19:24:04.056Z,3.1
2023-03-23T19:26:02.549Z,3.2
2023-03-23T19:30:03.638Z,3.1
2023-03-23T19:32:03.256Z,2.9
2023-03-23T19:34:02.838Z,4.3
2023-03-23T19:36:11.088Z,3.3
2023-03-23T19:38:02.436Z,3.6
2023-03-23T19:40:24.238Z,4.8
2023-03-23T19:42:04.275Z,6.5
2023-03-23T19:44:03.376Z,3.6
2023-03-23T19:46:03.550Z,3.3
2023-03-23T19:48:03.268Z,3.5
2023-03-23T19:50:02.570Z,3.0
2023-03-23T19:52:07.799Z,5.5
2023-03-23T19:54:03.210Z,4.5
2023-03-23T19:56:03.776Z,3.6
2023-03-23T19:58:03.350Z,2.3
2023-03-23T20:00:03.709Z,4.7
2023-03-23T20:02:03.116Z,4.3
2023-03-23T20:04:04.305Z,3.7
2023-03-23T20:06:05.856Z,3.3
2023-03-23T20:08:04.442Z,4.6
2023-03-23T20:10:02.725Z,4.6
2023-03-23T20:12:04.898Z,3.7
2023-03-23T20:14:03.670Z,2.9
2023-03-23T20:16:03.334Z,3.6
2023-03-23T20:18:03.206Z,3.8
2023-03-23T20:20:04.869Z,2.8
2023-03-23T20:22:03.697Z,4.3
2023-03-23T20:24:03.477Z,3.7
2023-03-23T20:26:05.947Z,3.6
2023-03-23T20:28:02.570Z,3.4
2023-03-23T20:30:04.249Z,2.7
2023-03-23T20:32:02.551Z,3.5
2023-03-23T20:34:10.366Z,2.8
2023-03-23T20:36:03.053Z,2.4
2023-03-23T20:38:02.465Z,3.3
2023-03-23T20:40:06.470Z,2.6
2023-03-23T20:42:05.251Z,1.8
2023-03-23T20:44:03.212Z,2.7
2023-03-23T20:46:04.739Z,2.3
2023-03-23T20:48:05.188Z,3.1
2023-03-23T20:50:02.914Z,3.3
2023-03-23T20:52:03.665Z,2.8
2023-03-23T20:54:04.286Z,3.1
2023-03-23T20:56:05.728Z,2.4
2023-03-23T20:58:02.645Z,2.3
2023-03-23T21:00:06.017Z,2.5
2023-03-23T21:02:04.143Z,2.0
2023-03-23T21:04:02.892Z,2.7
2023-03-23T21:06:06.478Z,4.2
2023-03-23T21:08:02.927Z,3.2
2023-03-23T21:10:04.106Z,2.7
2023-03-23T21:12:05.667Z,2.6
2023-03-23T21:14:03.411Z,2.5
2023-03-23T21:16:04.555Z,2.7
2023-03-23T21:18:03.738Z,2.7
2023-03-23T21:20:04.640Z,2.2
2023-03-23T21:22:03.831Z,2.3
2023-03-23T21:24:03.546Z,6.1
2023-03-23T21:26:05.648Z,5.8
2023-03-23T21:28:04.489Z,2.5
2023-03-23T21:30:03.850Z,1.8
2023-03-23T21:34:03.838Z,3.2
2023-03-23T21:36:02.891Z,2.7
2023-03-23T21:38:04.595Z,1.5
2023-03-23T21:40:03.435Z,2.0
2023-03-23T21:42:06.179Z,2.9
2023-03-23T21:44:05.599Z,3.3
2023-03-23T21:46:05.638Z,3.5
2023-03-23T21:48:02.839Z,1.8
2023-03-23T21:50:03.893Z,1.8
2023-03-23T21:52:02.951Z,2.7
2023-03-23T21:54:03.119Z,2.6
2023-03-23T21:56:04.732Z,2.9
2023-03-23T21:58:04.545Z,2.5
2023-03-23T22:00:06.620Z,3.2
2023-03-23T22:02:02.559Z,2.8
2023-03-23T22:04:03.744Z,2.4
2023-03-23T22:06:08.611Z,2.3
2023-03-23T22:08:02.567Z,2.5
2023-03-23T22:10:03.439Z,1.4
2023-03-23T22:12:03.014Z,1.9
2023-03-23T22:14:03.588Z,2.7
2023-03-23T22:16:04.759Z,2.3
2023-03-23T22:18:02.575Z,2.9
2023-03-23T22:20:05.033Z,2.7
2023-03-23T22:22:03.608Z,2.3
2023-03-23T22:24:03.967Z,3.9
2023-03-23T22:26:03.540Z,3.0
2023-03-23T22:28:04.817Z,3.0
2023-03-23T22:30:03.748Z,4.0
2023-03-23T22:32:02.525Z,4.4
2023-03-23T22:34:04.178Z,2.3
2023-03-23T22:36:05.790Z,3.4
2023-03-23T22:38:02.685Z,3.0
2023-03-23T22:40:06.633Z,2.9
2023-03-23T22:42:03.158Z,2.4
2023-03-23T22:44:03.458Z,3.2
2023-03-23T22:46:03.684Z,2.9
2023-03-23T22:48:05.123Z,3.9
2023-03-23T22:50:03.097Z,2.0
2023-03-23T22:52:02.969Z,3.4
2023-03-23T22:54:03.604Z,3.5
2023-03-23T22:56:03.487Z,2.4
2023-03-23T22:58:03.296Z,2.4
2023-03-23T23:00:07.128Z,2.6
2023-03-23T23:02:02.535Z,3.8
2023-03-23T23:04:03.847Z,3.2
2023-03-23T23:06:03.579Z,3.0
2023-03-23T23:08:02.592Z,3.0
2023-03-23T23:10:04.010Z,2.7
2023-03-23T23:12:02.815Z,2.0
2023-03-23T23:14:03.200Z,6.0
2023-03-23T23:16:03.500Z,3.1
2023-03-23T23:18:04.317Z,3.2
2023-03-23T23:20:04.932Z,3.1
2023-03-23T23:22:17.893Z,2.9
2023-03-23T23:24:03.410Z,2.6
2023-03-23T23:26:03.546Z,3.2
2023-03-23T23:28:04.340Z,4.6
2023-03-23T23:30:05.116Z,2.5
2023-03-23T23:32:02.893Z,3.8
2023-03-23T23:34:04.236Z,2.9
2023-03-23T23:36:02.828Z,3.8
2023-03-23T23:38:03.197Z,3.4
2023-03-23T23:40:06.222Z,3.8
2023-03-23T23:42:02.522Z,3.4
2023-03-23T23:44:04.223Z,3.6
2023-03-23T23:46:02.773Z,3.4
2023-03-23T23:48:04.783Z,2.9
2023-03-23T23:50:03.565Z,3.0
2023-03-23T23:52:03.604Z,4.9
2023-03-23T23:54:04.039Z,2.9
2023-03-23T23:56:05.405Z,4.1
2023-03-23T23:58:02.711Z,3.9
